sensor_id;sensor_type;location;lat;lon;timestamp;temperature;humidity
30280;DHT22;17097;50.916;5.344;2023-02-11T00:01:51;8.40;99.90
30280;DHT22;17097;50.916;5.344;2023-02-11T00:04:17;8.40;99.90
30280;DHT22;17097;50.916;5.344;2023-02-11T00:06:45;8.40;99.90
30280;DHT22;17097;50.916;5.344;2023-02-11T00:09:11;8.30;99.90
30280;DHT22;17097;50.916;5.344;2023-02-11T00:11:37;8.40;99.90
30280;DHT22;17097;50.916;5.344;2023-02-11T00:14:05;8.30;99.90
30280;DHT22;17097;50.916;5.344;2023-02-11T00:16:32;8.20;99.90
30280;DHT22;17097;50.916;5.344;2023-02-11T00:19:02;8.10;99.90
30280;DHT22;17097;50.916;5.344;2023-02-11T00:21:30;8.00;99.90
30280;DHT22;17097;50.916;5.344;2023-02-11T00:23:59;8.00;99.90
30280;DHT22;17097;50.916;5.344;2023-02-11T00:26:31;8.10;99.90
30280;DHT22;17097;50.916;5.344;2023-02-11T00:28:59;8.00;99.90
30280;DHT22;17097;50.916;5.344;2023-02-11T00:31:25;8.00;99.90
30280;DHT22;17097;50.916;5.344;2023-02-11T00:33:52;8.10;99.90
30280;DHT22;17097;50.916;5.344;2023-02-11T00:36:21;8.10;99.90
30280;DHT22;17097;50.916;5.344;2023-02-11T00:38:48;8.00;99.90
30280;DHT22;17097;50.916;5.344;2023-02-11T00:41:15;8.10;99.90
30280;DHT22;17097;50.916;5.344;2023-02-11T00:43:42;7.90;99.90
30280;DHT22;17097;50.916;5.344;2023-02-11T00:46:08;8.00;99.90
30280;DHT22;17097;50.916;5.344;2023-02-11T00:48:35;8.00;99.90
30280;DHT22;17097;50.916;5.344;2023-02-11T00:51:01;7.90;99.90
30280;DHT22;17097;50.916;5.344;2023-02-11T00:53:29;7.80;99.90
30280;DHT22;17097;50.916;5.344;2023-02-11T00:55:55;7.90;99.90
30280;DHT22;17097;50.916;5.344;2023-02-11T00:58:23;8.00;99.90
30280;DHT22;17097;50.916;5.344;2023-02-11T01:00:49;7.90;99.90
30280;DHT22;17097;50.916;5.344;2023-02-11T01:03:15;7.90;99.90
30280;DHT22;17097;50.916;5.344;2023-02-11T01:05:41;8.00;99.90
30280;DHT22;17097;50.916;5.344;2023-02-11T01:08:07;8.00;99.90
30280;DHT22;17097;50.916;5.344;2023-02-11T01:10:33;7.90;99.90
30280;DHT22;17097;50.916;5.344;2023-02-11T01:12:59;8.00;99.90
30280;DHT22;17097;50.916;5.344;2023-02-11T01:15:31;8.00;99.90
30280;DHT22;17097;50.916;5.344;2023-02-11T01:17:59;8.10;99.90
30280;DHT22;17097;50.916;5.344;2023-02-11T01:20:26;8.10;99.90
30280;DHT22;17097;50.916;5.344;2023-02-11T01:22:53;8.10;99.90
30280;DHT22;17097;50.916;5.344;2023-02-11T01:25:18;8.20;99.90
30280;DHT22;17097;50.916;5.344;2023-02-11T01:27:44;8.20;99.90
30280;DHT22;17097;50.916;5.344;2023-02-11T01:30:12;8.10;99.90
30280;DHT22;17097;50.916;5.344;2023-02-11T01:32:38;8.10;99.90
30280;DHT22;17097;50.916;5.344;2023-02-11T01:35:05;8.10;99.90
30280;DHT22;17097;50.916;5.344;2023-02-11T01:37:34;8.00;99.90
30280;DHT22;17097;50.916;5.344;2023-02-11T01:40:10;8.00;99.90
30280;DHT22;17097;50.916;5.344;2023-02-11T01:42:36;8.00;99.90
30280;DHT22;17097;50.916;5.344;2023-02-11T01:48:08;8.10;99.90
30280;DHT22;17097;50.916;5.344;2023-02-11T01:50:39;8.10;99.90
30280;DHT22;17097;50.916;5.344;2023-02-11T01:53:06;8.00;99.90
30280;DHT22;17097;50.916;5.344;2023-02-11T01:55:52;8.00;99.90
30280;DHT22;17097;50.916;5.344;2023-02-11T01:58:37;8.00;99.90
30280;DHT22;17097;50.916;5.344;2023-02-11T02:01:07;8.00;99.90
30280;DHT22;17097;50.916;5.344;2023-02-11T02:03:36;8.00;99.90
30280;DHT22;17097;50.916;5.344;2023-02-11T02:06:14;8.00;99.90
30280;DHT22;17097;50.916;5.344;2023-02-11T02:11:14;8.00;99.90
30280;DHT22;17097;50.916;5.344;2023-02-11T02:13:40;8.00;99.90
30280;DHT22;17097;50.916;5.344;2023-02-11T02:16:17;8.00;99.90
30280;DHT22;17097;50.916;5.344;2023-02-11T02:18:55;8.10;99.90
30280;DHT22;17097;50.916;5.344;2023-02-11T02:27:35;8.00;99.90
30280;DHT22;17097;50.916;5.344;2023-02-11T02:36:01;7.80;99.90
30280;DHT22;17097;50.916;5.344;2023-02-11T02:41:18;7.90;99.90
30280;DHT22;17097;50.916;5.344;2023-02-11T02:43:48;7.90;99.90
30280;DHT22;17097;50.916;5.344;2023-02-11T02:46:33;7.90;99.90
30280;DHT22;17097;50.916;5.344;2023-02-11T02:49:00;7.90;99.90
30280;DHT22;17097;50.916;5.344;2023-02-11T02:51:57;8.10;99.90
30280;DHT22;17097;50.916;5.344;2023-02-11T03:03:02;8.00;99.90
30280;DHT22;17097;50.916;5.344;2023-02-11T03:08:14;8.00;99.90
30280;DHT22;17097;50.916;5.344;2023-02-11T03:10:44;8.00;99.90
30280;DHT22;17097;50.916;5.344;2023-02-11T03:13:14;7.90;99.90
30280;DHT22;17097;50.916;5.344;2023-02-11T03:15:46;8.00;99.90
30280;DHT22;17097;50.916;5.344;2023-02-11T03:18:16;7.90;99.90
30280;DHT22;17097;50.916;5.344;2023-02-11T03:20:46;8.10;99.90
30280;DHT22;17097;50.916;5.344;2023-02-11T03:26:24;7.90;99.90
30280;DHT22;17097;50.916;5.344;2023-02-11T03:32:04;8.00;99.90
30280;DHT22;17097;50.916;5.344;2023-02-11T03:40:04;8.10;99.90
30280;DHT22;17097;50.916;5.344;2023-02-11T03:42:42;8.10;99.90
30280;DHT22;17097;50.916;5.344;2023-02-11T03:45:12;8.10;99.90
30280;DHT22;17097;50.916;5.344;2023-02-11T03:47:44;8.20;99.90
30280;DHT22;17097;50.916;5.344;2023-02-11T03:50:11;8.20;99.90
30280;DHT22;17097;50.916;5.344;2023-02-11T03:52:38;8.30;99.90
30280;DHT22;17097;50.916;5.344;2023-02-11T03:55:09;8.20;99.90
30280;DHT22;17097;50.916;5.344;2023-02-11T03:57:37;8.20;99.90
30280;DHT22;17097;50.916;5.344;2023-02-11T04:00:04;8.30;99.90
30280;DHT22;17097;50.916;5.344;2023-02-11T04:02:33;8.20;99.90
30280;DHT22;17097;50.916;5.344;2023-02-11T04:04:59;8.30;99.90
30280;DHT22;17097;50.916;5.344;2023-02-11T04:07:28;8.20;99.90
30280;DHT22;17097;50.916;5.344;2023-02-11T04:09:56;8.20;99.90
30280;DHT22;17097;50.916;5.344;2023-02-11T04:12:23;8.30;99.90
30280;DHT22;17097;50.916;5.344;2023-02-11T04:14:48;8.30;99.90
30280;DHT22;17097;50.916;5.344;2023-02-11T04:17:16;8.20;99.90
30280;DHT22;17097;50.916;5.344;2023-02-11T04:19:43;8.20;99.90
30280;DHT22;17097;50.916;5.344;2023-02-11T04:22:08;8.10;99.90
30280;DHT22;17097;50.916;5.344;2023-02-11T04:24:34;8.10;99.90
30280;DHT22;17097;50.916;5.344;2023-02-11T04:27:00;8.20;99.90
30280;DHT22;17097;50.916;5.344;2023-02-11T04:29:26;8.30;99.90
30280;DHT22;17097;50.916;5.344;2023-02-11T04:31:53;8.30;99.90
30280;DHT22;17097;50.916;5.344;2023-02-11T04:34:19;8.20;99.90
30280;DHT22;17097;50.916;5.344;2023-02-11T04:36:45;8.00;99.90
30280;DHT22;17097;50.916;5.344;2023-02-11T04:39:11;8.20;99.90
30280;DHT22;17097;50.916;5.344;2023-02-11T04:41:37;8.10;99.90
30280;DHT22;17097;50.916;5.344;2023-02-11T04:44:03;8.00;99.90
30280;DHT22;17097;50.916;5.344;2023-02-11T04:46:32;8.10;99.90
30280;DHT22;17097;50.916;5.344;2023-02-11T04:48:57;8.10;99.90
30280;DHT22;17097;50.916;5.344;2023-02-11T04:51:23;8.20;99.90
30280;DHT22;17097;50.916;5.344;2023-02-11T04:53:49;8.10;99.90
30280;DHT22;17097;50.916;5.344;2023-02-11T04:56:18;8.20;99.90
30280;DHT22;17097;50.916;5.344;2023-02-11T04:58:43;8.20;99.90
30280;DHT22;17097;50.916;5.344;2023-02-11T05:01:12;8.20;99.90
30280;DHT22;17097;50.916;5.344;2023-02-11T05:03:38;8.10;99.90
30280;DHT22;17097;50.916;5.344;2023-02-11T05:06:04;8.30;99.90
30280;DHT22;17097;50.916;5.344;2023-02-11T05:08:30;8.20;99.90
30280;DHT22;17097;50.916;5.344;2023-02-11T05:11:00;8.20;99.90
30280;DHT22;17097;50.916;5.344;2023-02-11T05:13:27;8.20;99.90
30280;DHT22;17097;50.916;5.344;2023-02-11T05:15:53;8.20;99.90
30280;DHT22;17097;50.916;5.344;2023-02-11T05:18:20;8.30;99.90
30280;DHT22;17097;50.916;5.344;2023-02-11T05:20:45;8.20;99.90
30280;DHT22;17097;50.916;5.344;2023-02-11T05:23:11;8.20;99.90
30280;DHT22;17097;50.916;5.344;2023-02-11T05:25:37;8.30;99.90
30280;DHT22;17097;50.916;5.344;2023-02-11T05:28:04;8.20;99.90
30280;DHT22;17097;50.916;5.344;2023-02-11T05:30:30;8.20;99.90
30280;DHT22;17097;50.916;5.344;2023-02-11T05:32:56;8.20;99.90
30280;DHT22;17097;50.916;5.344;2023-02-11T05:35:23;8.20;99.90
30280;DHT22;17097;50.916;5.344;2023-02-11T05:37:49;8.30;99.90
30280;DHT22;17097;50.916;5.344;2023-02-11T05:40:15;8.40;99.90
30280;DHT22;17097;50.916;5.344;2023-02-11T05:42:42;8.40;99.90
30280;DHT22;17097;50.916;5.344;2023-02-11T05:45:10;8.40;99.90
30280;DHT22;17097;50.916;5.344;2023-02-11T05:47:38;8.30;99.90
30280;DHT22;17097;50.916;5.344;2023-02-11T05:50:04;8.40;99.90
30280;DHT22;17097;50.916;5.344;2023-02-11T05:52:30;8.40;99.90
30280;DHT22;17097;50.916;5.344;2023-02-11T05:54:56;8.30;99.90
30280;DHT22;17097;50.916;5.344;2023-02-11T05:57:22;8.30;99.90
30280;DHT22;17097;50.916;5.344;2023-02-11T05:59:48;8.40;99.90
30280;DHT22;17097;50.916;5.344;2023-02-11T06:02:14;8.40;99.90
30280;DHT22;17097;50.916;5.344;2023-02-11T06:04:40;8.40;99.90
30280;DHT22;17097;50.916;5.344;2023-02-11T06:07:10;8.30;99.90
30280;DHT22;17097;50.916;5.344;2023-02-11T06:09:36;8.40;99.90
30280;DHT22;17097;50.916;5.344;2023-02-11T06:12:02;8.30;99.90
30280;DHT22;17097;50.916;5.344;2023-02-11T06:14:31;8.40;99.90
30280;DHT22;17097;50.916;5.344;2023-02-11T06:16:58;8.60;99.90
30280;DHT22;17097;50.916;5.344;2023-02-11T06:19:24;8.60;99.90
30280;DHT22;17097;50.916;5.344;2023-02-11T06:21:49;8.40;99.90
30280;DHT22;17097;50.916;5.344;2023-02-11T06:24:15;8.30;99.90
30280;DHT22;17097;50.916;5.344;2023-02-11T06:26:42;8.20;99.90
30280;DHT22;17097;50.916;5.344;2023-02-11T06:29:07;8.30;99.90
30280;DHT22;17097;50.916;5.344;2023-02-11T06:31:36;8.40;99.90
30280;DHT22;17097;50.916;5.344;2023-02-11T06:34:02;8.40;99.90
30280;DHT22;17097;50.916;5.344;2023-02-11T06:36:29;8.40;99.90
30280;DHT22;17097;50.916;5.344;2023-02-11T06:38:55;8.30;99.90
30280;DHT22;17097;50.916;5.344;2023-02-11T06:41:22;8.30;99.90
30280;DHT22;17097;50.916;5.344;2023-02-11T06:43:50;8.40;99.90
30280;DHT22;17097;50.916;5.344;2023-02-11T06:46:19;8.50;99.90
30280;DHT22;17097;50.916;5.344;2023-02-11T06:48:46;8.60;99.90
30280;DHT22;17097;50.916;5.344;2023-02-11T06:51:12;8.60;99.90
30280;DHT22;17097;50.916;5.344;2023-02-11T06:53:44;8.60;99.90
30280;DHT22;17097;50.916;5.344;2023-02-11T06:56:15;8.50;99.90
30280;DHT22;17097;50.916;5.344;2023-02-11T06:58:42;8.50;99.90
30280;DHT22;17097;50.916;5.344;2023-02-11T07:01:10;8.50;99.90
30280;DHT22;17097;50.916;5.344;2023-02-11T07:03:39;8.50;99.90
30280;DHT22;17097;50.916;5.344;2023-02-11T07:06:10;8.60;99.90
30280;DHT22;17097;50.916;5.344;2023-02-11T07:08:39;8.60;99.90
30280;DHT22;17097;50.916;5.344;2023-02-11T07:11:13;8.70;99.90
30280;DHT22;17097;50.916;5.344;2023-02-11T07:13:39;8.60;99.90
30280;DHT22;17097;50.916;5.344;2023-02-11T07:16:09;8.50;99.90
30280;DHT22;17097;50.916;5.344;2023-02-11T07:18:35;8.60;99.90
30280;DHT22;17097;50.916;5.344;2023-02-11T07:21:05;8.60;99.90
30280;DHT22;17097;50.916;5.344;2023-02-11T07:23:32;8.60;99.90
30280;DHT22;17097;50.916;5.344;2023-02-11T07:26:02;8.60;99.90
30280;DHT22;17097;50.916;5.344;2023-02-11T07:28:28;8.50;99.90
30280;DHT22;17097;50.916;5.344;2023-02-11T07:30:54;8.60;99.90
30280;DHT22;17097;50.916;5.344;2023-02-11T07:33:20;8.60;99.90
30280;DHT22;17097;50.916;5.344;2023-02-11T07:35:46;8.60;99.90
30280;DHT22;17097;50.916;5.344;2023-02-11T07:38:12;8.60;99.90
30280;DHT22;17097;50.916;5.344;2023-02-11T07:40:38;8.50;99.90
30280;DHT22;17097;50.916;5.344;2023-02-11T07:43:04;8.60;99.90
30280;DHT22;17097;50.916;5.344;2023-02-11T07:45:29;8.60;99.90
30280;DHT22;17097;50.916;5.344;2023-02-11T07:47:58;8.70;99.90
30280;DHT22;17097;50.916;5.344;2023-02-11T07:50:26;8.70;99.90
30280;DHT22;17097;50.916;5.344;2023-02-11T07:52:55;8.60;99.90
30280;DHT22;17097;50.916;5.344;2023-02-11T07:55:23;8.70;99.90
30280;DHT22;17097;50.916;5.344;2023-02-11T07:57:49;8.70;99.90
30280;DHT22;17097;50.916;5.344;2023-02-11T08:00:17;8.70;99.90
30280;DHT22;17097;50.916;5.344;2023-02-11T08:02:43;8.70;99.90
30280;DHT22;17097;50.916;5.344;2023-02-11T08:05:09;8.70;99.90
30280;DHT22;17097;50.916;5.344;2023-02-11T08:07:37;8.60;99.90
30280;DHT22;17097;50.916;5.344;2023-02-11T08:10:03;8.70;99.90
30280;DHT22;17097;50.916;5.344;2023-02-11T08:12:29;8.90;99.90
30280;DHT22;17097;50.916;5.344;2023-02-11T08:14:59;8.90;99.90
30280;DHT22;17097;50.916;5.344;2023-02-11T08:17:27;8.80;99.90
30280;DHT22;17097;50.916;5.344;2023-02-11T08:19:53;8.70;99.90
30280;DHT22;17097;50.916;5.344;2023-02-11T08:22:20;8.70;99.90
30280;DHT22;17097;50.916;5.344;2023-02-11T08:24:45;8.60;99.90
30280;DHT22;17097;50.916;5.344;2023-02-11T08:27:11;8.60;99.90
30280;DHT22;17097;50.916;5.344;2023-02-11T08:29:37;8.90;99.90
30280;DHT22;17097;50.916;5.344;2023-02-11T08:32:03;8.80;99.90
30280;DHT22;17097;50.916;5.344;2023-02-11T08:34:29;8.80;99.90
30280;DHT22;17097;50.916;5.344;2023-02-11T08:36:55;8.90;99.90
30280;DHT22;17097;50.916;5.344;2023-02-11T08:39:22;8.90;99.90
30280;DHT22;17097;50.916;5.344;2023-02-11T08:41:52;8.80;99.90
30280;DHT22;17097;50.916;5.344;2023-02-11T08:44:20;8.90;99.90
30280;DHT22;17097;50.916;5.344;2023-02-11T08:46:46;8.80;99.90
30280;DHT22;17097;50.916;5.344;2023-02-11T08:49:13;8.70;99.90
30280;DHT22;17097;50.916;5.344;2023-02-11T08:51:39;8.80;99.90
30280;DHT22;17097;50.916;5.344;2023-02-11T08:54:04;8.90;99.90
30280;DHT22;17097;50.916;5.344;2023-02-11T08:56:34;8.90;99.90
30280;DHT22;17097;50.916;5.344;2023-02-11T08:59:00;9.00;99.90
30280;DHT22;17097;50.916;5.344;2023-02-11T09:01:30;8.90;99.90
30280;DHT22;17097;50.916;5.344;2023-02-11T09:03:57;9.00;99.90
30280;DHT22;17097;50.916;5.344;2023-02-11T09:06:23;9.00;99.90
30280;DHT22;17097;50.916;5.344;2023-02-11T09:08:53;9.00;99.90
30280;DHT22;17097;50.916;5.344;2023-02-11T09:11:23;9.00;99.90
30280;DHT22;17097;50.916;5.344;2023-02-11T09:13:49;8.90;99.90
30280;DHT22;17097;50.916;5.344;2023-02-11T09:16:18;9.00;99.90
30280;DHT22;17097;50.916;5.344;2023-02-11T09:18:46;9.00;99.90
30280;DHT22;17097;50.916;5.344;2023-02-11T09:21:13;9.00;99.90
30280;DHT22;17097;50.916;5.344;2023-02-11T09:23:39;9.10;99.90
30280;DHT22;17097;50.916;5.344;2023-02-11T09:26:16;9.20;99.90
30280;DHT22;17097;50.916;5.344;2023-02-11T09:28:42;9.40;99.90
30280;DHT22;17097;50.916;5.344;2023-02-11T09:31:09;9.40;99.90
30280;DHT22;17097;50.916;5.344;2023-02-11T09:33:37;9.50;99.90
30280;DHT22;17097;50.916;5.344;2023-02-11T09:36:04;9.40;99.90
30280;DHT22;17097;50.916;5.344;2023-02-11T09:38:33;9.40;99.90
30280;DHT22;17097;50.916;5.344;2023-02-11T09:40:59;9.40;99.90
30280;DHT22;17097;50.916;5.344;2023-02-11T09:43:35;9.40;99.90
30280;DHT22;17097;50.916;5.344;2023-02-11T09:46:03;9.30;99.90
30280;DHT22;17097;50.916;5.344;2023-02-11T09:48:38;9.40;99.90
30280;DHT22;17097;50.916;5.344;2023-02-11T09:51:23;9.60;99.90
30280;DHT22;17097;50.916;5.344;2023-02-11T09:53:57;9.50;99.90
30280;DHT22;17097;50.916;5.344;2023-02-11T09:56:26;9.50;99.90
30280;DHT22;17097;50.916;5.344;2023-02-11T09:58:52;9.40;99.90
30280;DHT22;17097;50.916;5.344;2023-02-11T10:01:44;9.40;99.90
30280;DHT22;17097;50.916;5.344;2023-02-11T10:06:49;9.40;99.90
30280;DHT22;17097;50.916;5.344;2023-02-11T10:09:32;9.50;99.90
30280;DHT22;17097;50.916;5.344;2023-02-11T10:12:34;9.50;99.90
30280;DHT22;17097;50.916;5.344;2023-02-11T10:15:12;9.60;99.90
30280;DHT22;17097;50.916;5.344;2023-02-11T10:20:42;9.50;99.90
30280;DHT22;17097;50.916;5.344;2023-02-11T10:23:12;9.60;99.90
30280;DHT22;17097;50.916;5.344;2023-02-11T10:25:43;9.60;99.90
30280;DHT22;17097;50.916;5.344;2023-02-11T10:28:14;9.50;99.90
30280;DHT22;17097;50.916;5.344;2023-02-11T10:30:53;9.60;99.90
30280;DHT22;17097;50.916;5.344;2023-02-11T10:36:11;9.70;99.90
30280;DHT22;17097;50.916;5.344;2023-02-11T10:38:38;9.70;99.90
30280;DHT22;17097;50.916;5.344;2023-02-11T10:41:04;9.70;99.90
30280;DHT22;17097;50.916;5.344;2023-02-11T10:43:32;9.70;99.90
30280;DHT22;17097;50.916;5.344;2023-02-11T10:45:59;9.70;99.90
30280;DHT22;17097;50.916;5.344;2023-02-11T10:48:51;9.70;99.90
30280;DHT22;17097;50.916;5.344;2023-02-11T10:51:32;9.70;99.90
30280;DHT22;17097;50.916;5.344;2023-02-11T10:56:41;9.90;99.90
30280;DHT22;17097;50.916;5.344;2023-02-11T11:01:49;9.80;99.90
30280;DHT22;17097;50.916;5.344;2023-02-11T11:04:37;9.80;99.90
30280;DHT22;17097;50.916;5.344;2023-02-11T11:07:30;9.70;99.90
30280;DHT22;17097;50.916;5.344;2023-02-11T11:09:57;9.70;99.90
30280;DHT22;17097;50.916;5.344;2023-02-11T11:12:44;9.70;99.90
30280;DHT22;17097;50.916;5.344;2023-02-11T11:15:23;9.70;99.90
30280;DHT22;17097;50.916;5.344;2023-02-11T11:20:33;9.80;99.90
30280;DHT22;17097;50.916;5.344;2023-02-11T11:23:27;10.00;99.90
30280;DHT22;17097;50.916;5.344;2023-02-11T11:26:06;9.90;99.90
30280;DHT22;17097;50.916;5.344;2023-02-11T11:33:53;10.00;99.90
30280;DHT22;17097;50.916;5.344;2023-02-11T11:36:22;10.00;99.90
30280;DHT22;17097;50.916;5.344;2023-02-11T11:38:55;9.90;99.90
30280;DHT22;17097;50.916;5.344;2023-02-11T11:41:25;10.00;99.90
30280;DHT22;17097;50.916;5.344;2023-02-11T11:44:02;10.10;99.90
30280;DHT22;17097;50.916;5.344;2023-02-11T11:46:35;10.10;99.90
30280;DHT22;17097;50.916;5.344;2023-02-11T11:49:28;10.30;99.90
30280;DHT22;17097;50.916;5.344;2023-02-11T11:52:19;10.20;99.90
30280;DHT22;17097;50.916;5.344;2023-02-11T11:57:38;10.10;99.90
30280;DHT22;17097;50.916;5.344;2023-02-11T12:00:04;10.30;99.90
30280;DHT22;17097;50.916;5.344;2023-02-11T12:02:59;10.50;99.90
30280;DHT22;17097;50.916;5.344;2023-02-11T12:11:24;10.10;99.90
30280;DHT22;17097;50.916;5.344;2023-02-11T12:25:02;10.30;99.90
30280;DHT22;17097;50.916;5.344;2023-02-11T12:28:05;10.50;99.90
30280;DHT22;17097;50.916;5.344;2023-02-11T12:39:36;10.60;99.90
30280;DHT22;17097;50.916;5.344;2023-02-11T12:41:49;10.60;99.90
30280;DHT22;17097;50.916;5.344;2023-02-11T12:47:48;10.60;99.90
30280;DHT22;17097;50.916;5.344;2023-02-11T12:55:45;10.70;99.90
30280;DHT22;17097;50.916;5.344;2023-02-11T12:58:21;10.70;99.90
30280;DHT22;17097;50.916;5.344;2023-02-11T13:00:55;10.40;99.90
30280;DHT22;17097;50.916;5.344;2023-02-11T13:06:16;10.60;99.90
30280;DHT22;17097;50.916;5.344;2023-02-11T13:08:47;10.80;99.90
30280;DHT22;17097;50.916;5.344;2023-02-11T13:11:23;10.90;99.90
30280;DHT22;17097;50.916;5.344;2023-02-11T13:14:08;10.60;99.90
30280;DHT22;17097;50.916;5.344;2023-02-11T13:16:45;10.60;99.90
30280;DHT22;17097;50.916;5.344;2023-02-11T13:24:49;10.90;99.90
30280;DHT22;17097;50.916;5.344;2023-02-11T13:30:07;10.70;99.90
30280;DHT22;17097;50.916;5.344;2023-02-11T13:36:25;10.70;99.90
30280;DHT22;17097;50.916;5.344;2023-02-11T13:38:27;10.70;99.90
30280;DHT22;17097;50.916;5.344;2023-02-11T13:43:27;10.70;99.90
30280;DHT22;17097;50.916;5.344;2023-02-11T13:46:20;10.70;99.90
30280;DHT22;17097;50.916;5.344;2023-02-11T13:48:50;10.80;99.90
30280;DHT22;17097;50.916;5.344;2023-02-11T13:51:39;10.80;99.90
30280;DHT22;17097;50.916;5.344;2023-02-11T13:54:05;10.80;99.90
30280;DHT22;17097;50.916;5.344;2023-02-11T13:56:37;10.80;99.90
30280;DHT22;17097;50.916;5.344;2023-02-11T14:02:08;10.80;99.90
30280;DHT22;17097;50.916;5.344;2023-02-11T14:10:57;10.90;99.90
30280;DHT22;17097;50.916;5.344;2023-02-11T14:13:33;11.10;99.90
30280;DHT22;17097;50.916;5.344;2023-02-11T14:16:13;11.00;99.90
30280;DHT22;17097;50.916;5.344;2023-02-11T14:21:29;10.90;99.90
30280;DHT22;17097;50.916;5.344;2023-02-11T14:32:16;10.90;99.90
30280;DHT22;17097;50.916;5.344;2023-02-11T14:37:46;11.10;99.90
30280;DHT22;17097;50.916;5.344;2023-02-11T14:40:30;11.00;99.90
30280;DHT22;17097;50.916;5.344;2023-02-11T14:43:02;11.00;99.90
30280;DHT22;17097;50.916;5.344;2023-02-11T14:45:33;10.90;99.90
30280;DHT22;17097;50.916;5.344;2023-02-11T14:48:05;10.90;99.90
30280;DHT22;17097;50.916;5.344;2023-02-11T14:50:43;11.00;99.90
30280;DHT22;17097;50.916;5.344;2023-02-11T14:53:15;11.00;99.90
30280;DHT22;17097;50.916;5.344;2023-02-11T14:55:43;11.10;99.90
30280;DHT22;17097;50.916;5.344;2023-02-11T14:58:27;11.10;99.90
30280;DHT22;17097;50.916;5.344;2023-02-11T15:01:03;11.20;99.90
30280;DHT22;17097;50.916;5.344;2023-02-11T15:06:12;11.20;99.90
30280;DHT22;17097;50.916;5.344;2023-02-11T15:08:44;11.00;99.90
30280;DHT22;17097;50.916;5.344;2023-02-11T15:11:17;11.00;99.90
30280;DHT22;17097;50.916;5.344;2023-02-11T15:13:45;11.00;99.90
30280;DHT22;17097;50.916;5.344;2023-02-11T15:16:25;10.90;99.90
30280;DHT22;17097;50.916;5.344;2023-02-11T15:19:02;10.90;99.90
30280;DHT22;17097;50.916;5.344;2023-02-11T15:21:30;10.90;99.90
30280;DHT22;17097;50.916;5.344;2023-02-11T15:24:02;10.90;99.90
30280;DHT22;17097;50.916;5.344;2023-02-11T15:26:30;10.90;99.90
30280;DHT22;17097;50.916;5.344;2023-02-11T15:28:56;11.00;99.90
30280;DHT22;17097;50.916;5.344;2023-02-11T15:31:24;10.90;99.90
30280;DHT22;17097;50.916;5.344;2023-02-11T15:33:52;10.90;99.90
30280;DHT22;17097;50.916;5.344;2023-02-11T15:36:23;11.00;99.90
30280;DHT22;17097;50.916;5.344;2023-02-11T15:39:16;11.00;99.90
30280;DHT22;17097;50.916;5.344;2023-02-11T15:41:42;11.10;99.90
30280;DHT22;17097;50.916;5.344;2023-02-11T15:44:26;11.00;99.90
30280;DHT22;17097;50.916;5.344;2023-02-11T15:46:55;11.10;99.90
30280;DHT22;17097;50.916;5.344;2023-02-11T15:49:23;11.00;99.90
30280;DHT22;17097;50.916;5.344;2023-02-11T15:51:52;11.00;99.90
30280;DHT22;17097;50.916;5.344;2023-02-11T15:54:27;10.90;99.90
30280;DHT22;17097;50.916;5.344;2023-02-11T15:57:02;11.00;99.90
30280;DHT22;17097;50.916;5.344;2023-02-11T15:59:35;11.00;99.90
30280;DHT22;17097;50.916;5.344;2023-02-11T16:02:19;11.00;99.90
30280;DHT22;17097;50.916;5.344;2023-02-11T16:04:51;11.10;99.90
30280;DHT22;17097;50.916;5.344;2023-02-11T16:07:40;11.30;99.90
30280;DHT22;17097;50.916;5.344;2023-02-11T16:10:30;11.20;99.90
30280;DHT22;17097;50.916;5.344;2023-02-11T16:15:42;11.10;99.90
30280;DHT22;17097;50.916;5.344;2023-02-11T16:18:36;11.30;99.90
30280;DHT22;17097;50.916;5.344;2023-02-11T16:21:03;11.10;99.90
30280;DHT22;17097;50.916;5.344;2023-02-11T16:23:38;11.00;99.90
30280;DHT22;17097;50.916;5.344;2023-02-11T16:28:39;11.00;99.90
30280;DHT22;17097;50.916;5.344;2023-02-11T16:31:05;11.00;99.90
30280;DHT22;17097;50.916;5.344;2023-02-11T16:33:31;10.90;99.90
30280;DHT22;17097;50.916;5.344;2023-02-11T16:36:00;10.90;99.90
30280;DHT22;17097;50.916;5.344;2023-02-11T16:38:27;10.90;99.90
30280;DHT22;17097;50.916;5.344;2023-02-11T16:40:53;10.90;99.90
30280;DHT22;17097;50.916;5.344;2023-02-11T16:43:19;10.80;99.90
30280;DHT22;17097;50.916;5.344;2023-02-11T16:45:45;10.80;99.90
30280;DHT22;17097;50.916;5.344;2023-02-11T16:48:15;10.80;99.90
30280;DHT22;17097;50.916;5.344;2023-02-11T16:50:44;10.70;99.90
30280;DHT22;17097;50.916;5.344;2023-02-11T16:53:11;10.80;99.90
30280;DHT22;17097;50.916;5.344;2023-02-11T16:55:38;10.80;99.90
30280;DHT22;17097;50.916;5.344;2023-02-11T16:58:04;10.70;99.90
30280;DHT22;17097;50.916;5.344;2023-02-11T17:00:30;10.80;99.90
30280;DHT22;17097;50.916;5.344;2023-02-11T17:02:56;10.80;99.90
30280;DHT22;17097;50.916;5.344;2023-02-11T17:05:22;10.80;99.90
30280;DHT22;17097;50.916;5.344;2023-02-11T17:07:50;10.80;99.90
30280;DHT22;17097;50.916;5.344;2023-02-11T17:10:22;10.70;99.90
30280;DHT22;17097;50.916;5.344;2023-02-11T17:12:49;10.70;99.90
30280;DHT22;17097;50.916;5.344;2023-02-11T17:15:15;10.70;99.90
30280;DHT22;17097;50.916;5.344;2023-02-11T17:17:41;10.70;99.90
30280;DHT22;17097;50.916;5.344;2023-02-11T17:20:10;10.60;99.90
30280;DHT22;17097;50.916;5.344;2023-02-11T17:22:38;10.70;99.90
30280;DHT22;17097;50.916;5.344;2023-02-11T17:25:04;10.70;99.90
30280;DHT22;17097;50.916;5.344;2023-02-11T17:27:31;10.70;99.90
30280;DHT22;17097;50.916;5.344;2023-02-11T17:29:56;10.70;99.90
30280;DHT22;17097;50.916;5.344;2023-02-11T17:32:22;10.70;99.90
30280;DHT22;17097;50.916;5.344;2023-02-11T17:34:48;10.70;99.90
30280;DHT22;17097;50.916;5.344;2023-02-11T17:37:14;10.60;99.90
30280;DHT22;17097;50.916;5.344;2023-02-11T17:39:40;10.60;99.90
30280;DHT22;17097;50.916;5.344;2023-02-11T17:42:07;10.60;99.90
30280;DHT22;17097;50.916;5.344;2023-02-11T17:44:36;10.60;99.90
30280;DHT22;17097;50.916;5.344;2023-02-11T17:47:03;10.60;99.90
30280;DHT22;17097;50.916;5.344;2023-02-11T17:49:29;10.60;99.90
30280;DHT22;17097;50.916;5.344;2023-02-11T17:51:54;10.60;99.90
30280;DHT22;17097;50.916;5.344;2023-02-11T17:54:20;10.60;99.90
30280;DHT22;17097;50.916;5.344;2023-02-11T17:56:46;10.60;99.90
30280;DHT22;17097;50.916;5.344;2023-02-11T17:59:14;10.60;99.90
30280;DHT22;17097;50.916;5.344;2023-02-11T18:01:41;10.60;99.90
30280;DHT22;17097;50.916;5.344;2023-02-11T18:04:11;10.50;99.90
30280;DHT22;17097;50.916;5.344;2023-02-11T18:06:37;10.60;99.90
30280;DHT22;17097;50.916;5.344;2023-02-11T18:09:04;10.50;99.90
30280;DHT22;17097;50.916;5.344;2023-02-11T18:11:32;10.50;99.90
30280;DHT22;17097;50.916;5.344;2023-02-11T18:14:01;10.50;99.90
30280;DHT22;17097;50.916;5.344;2023-02-11T18:16:28;10.50;99.90
30280;DHT22;17097;50.916;5.344;2023-02-11T18:18:55;10.50;99.90
30280;DHT22;17097;50.916;5.344;2023-02-11T18:21:21;10.50;99.90
30280;DHT22;17097;50.916;5.344;2023-02-11T18:23:48;10.50;99.90
30280;DHT22;17097;50.916;5.344;2023-02-11T18:26:19;10.50;99.90
30280;DHT22;17097;50.916;5.344;2023-02-11T18:28:46;10.50;99.90